NCAR-RAP Real-Time Weather Data

Output produced by METARs form (27 April 2015  01:42 UTC)
found at http://weather.rap.ucar.edu/surface/
 
Conditions at: KLOU observed 27 April 2015  00:53 UTC
Temperature: 13.3°C (56°F)
Dewpoint: 2.2°C (36°F) [RH = 47%]
Pressure (altimeter): 29.89 inches Hg (1012.3 mb)
[Sea-level pressure: 1012.2 mb]
Winds: from the N (350 degrees) at 8 MPH (7 knots; 3.6 m/s)
Visibility: 10 or more miles (16+ km)
Ceiling: at least 12,000 feet AGL
Clouds: sky clear below 12,000 feet AGL
Present Weather:
SOME DATA ABOVE MAY BE INACCURATE!!!
"$" is an indication the sensor requires maintenance
KLOU 270053Z 35007KT 10SM CLR 13/02 A2989 RMK AO2 SLP122 T01330022 $